Weather at Lindbergh's Landing Airport

Public forecast

Using degrees Fahrenheit for public forecast. Weather courtesy of forecast.io.

Closest aviation weather report (METAR) to Lindbergh's Landing Airport

Closest report is Miami Executive Airport, 3.5 nm (6.4 km) ENE. Retrieved 2020/10/24 21:53 UTC (1 hour ago):

KTMB 242153Z 12005KT 10SM -TSRA FEW023 SCT040 BKN075 26/25 A2984 RMK AO2 SLP103 P0002 T02560250

Closest aviation forecast (TAF) to Lindbergh's Landing Airport

Closest forecast is Miami Executive Airport, 3.5 nm (6.4 km) ENE. Retrieved 2020/10/24 18:42 UTC (4 hours ago):

TAF KTMB 241741Z 2418/2518 10011KT 6SM SHRA VCTS SCT025CB BKN050 OVC250 TEMPO 2418/2421 VRB15G25KT 3SM SHRA SCT015 BKN025 FM250000 12010KT P6SM VCSH SCT025 BKN050 BKN120 FM251500 14011KT 6SM SHRA VCTS SCT015 BKN025CB OVC050